createdAt,value
2019-02-11T00:01:14.637Z,107.43
2019-02-11T00:03:44.834Z,109.40
2019-02-11T00:06:15.089Z,116.03
2019-02-11T00:08:45.459Z,110.13
2019-02-11T00:11:15.679Z,93.43
2019-02-11T00:13:45.895Z,104.83
2019-02-11T00:16:16.238Z,92.77
2019-02-11T00:18:46.507Z,107.00
2019-02-11T00:21:16.782Z,102.03
2019-02-11T00:23:47.047Z,95.70
2019-02-11T00:26:17.306Z,110.97
2019-02-11T00:28:47.585Z,90.93
2019-02-11T00:31:18.005Z,101.87
2019-02-11T00:33:48.433Z,100.80
2019-02-11T00:36:18.605Z,102.50
2019-02-11T00:38:48.946Z,110.77
2019-02-11T00:41:19.297Z,100.43
2019-02-11T00:43:49.735Z,95.43
2019-02-11T00:46:20.073Z,111.43
2019-02-11T00:48:50.346Z,111.07
2019-02-11T00:51:20.603Z,108.30
2019-02-11T00:53:51.002Z,108.70
2019-02-11T00:56:21.231Z,103.73
2019-02-11T00:58:52.545Z,98.07
2019-02-11T01:01:22.866Z,99.57
2019-02-11T01:03:53.135Z,87.63
2019-02-11T01:06:23.428Z,108.57
2019-02-11T01:08:53.727Z,108.20
2019-02-11T01:11:23.995Z,103.73
2019-02-11T01:13:54.316Z,86.97
2019-02-11T01:16:24.714Z,91.33
2019-02-11T01:18:55.039Z,103.63
2019-02-11T01:21:25.299Z,97.00
2019-02-11T01:23:55.690Z,102.37
2019-02-11T01:26:26.047Z,100.43
2019-02-11T01:28:56.326Z,94.20
2019-02-11T01:31:26.651Z,98.50
2019-02-11T01:33:56.918Z,80.20
2019-02-11T01:36:27.187Z,112.33
2019-02-11T01:38:57.478Z,106.33
2019-02-11T01:41:27.795Z,106.50
2019-02-11T01:43:58.195Z,100.70
2019-02-11T01:46:28.505Z,94.10
2019-02-11T01:48:58.709Z,87.33
2019-02-11T01:51:28.968Z,110.17
2019-02-11T01:53:59.365Z,109.40
2019-02-11T01:56:29.586Z,119.50
2019-02-11T01:58:59.791Z,106.63
2019-02-11T02:01:32.959Z,108.50
2019-02-11T02:04:03.337Z,112.70
2019-02-11T02:06:33.570Z,107.00
2019-02-11T02:09:05.160Z,90.00
2019-02-11T02:11:35.466Z,114.17
2019-02-11T02:14:05.781Z,102.20
2019-02-11T02:16:36.135Z,124.87
2019-02-11T02:19:06.397Z,120.70
2019-02-11T02:21:36.759Z,129.60
2019-02-11T02:24:07.142Z,126.03
2019-02-11T02:26:37.364Z,111.90
2019-02-11T02:29:07.579Z,114.57
2019-02-11T02:31:37.921Z,107.77
2019-02-11T02:34:08.259Z,92.03
2019-02-11T02:36:38.535Z,102.60
2019-02-11T02:39:08.833Z,109.00
2019-02-11T02:41:39.147Z,111.67
2019-02-11T02:44:09.568Z,121.07
2019-02-11T02:46:40.041Z,98.70
2019-02-11T02:49:10.286Z,100.00
2019-02-11T02:51:40.507Z,99.40
2019-02-11T02:54:10.666Z,108.03
2019-02-11T02:56:40.964Z,123.87
2019-02-11T02:59:11.462Z,120.30
2019-02-11T03:01:41.735Z,106.53
2019-02-11T03:04:12.468Z,114.50
2019-02-11T03:06:42.679Z,109.10
2019-02-11T03:09:13.179Z,118.23
2019-02-11T03:11:43.426Z,116.33
2019-02-11T03:14:13.635Z,84.80
2019-02-11T03:16:43.998Z,92.63
2019-02-11T03:19:14.383Z,93.83
2019-02-11T03:21:44.796Z,106.33
2019-02-11T03:24:15.634Z,96.13
2019-02-11T03:26:47.049Z,99.00
2019-02-11T03:29:17.498Z,80.23
2019-02-11T03:31:52.063Z,99.93
2019-02-11T03:34:45.362Z,100.40
2019-02-11T03:37:34.996Z,93.57
2019-02-11T03:40:05.554Z,93.50
2019-02-11T03:42:35.863Z,98.37
2019-02-11T03:45:07.197Z,95.70
2019-02-11T03:47:37.611Z,83.17
2019-02-11T03:50:08.377Z,84.70
2019-02-11T03:52:38.704Z,74.93
2019-02-11T03:55:09.379Z,72.97
2019-02-11T03:57:39.683Z,85.63
2019-02-11T04:00:11.748Z,83.33
2019-02-11T04:02:41.972Z,86.57
2019-02-11T04:05:12.334Z,87.07
2019-02-11T04:07:42.724Z,87.83
2019-02-11T04:10:13.153Z,85.03
2019-02-11T04:12:43.275Z,83.83
2019-02-11T04:15:13.771Z,81.53
2019-02-11T04:17:44.061Z,80.77
2019-02-11T04:20:14.579Z,68.77
2019-02-11T04:22:44.872Z,76.73
2019-02-11T04:25:15.091Z,76.57
2019-02-11T04:27:45.335Z,77.10
2019-02-11T04:30:15.633Z,76.57
2019-02-11T04:32:45.909Z,77.80
2019-02-11T04:35:16.338Z,72.83
2019-02-11T04:37:46.686Z,71.03
2019-02-11T04:40:16.917Z,71.80
2019-02-11T04:42:47.184Z,59.73
2019-02-11T04:45:17.676Z,59.73
2019-02-11T04:47:48.059Z,75.40
2019-02-11T04:50:18.338Z,73.93
2019-02-11T04:52:48.627Z,68.00
2019-02-11T04:55:18.928Z,69.27
2019-02-11T04:57:49.251Z,75.93
2019-02-11T05:00:19.596Z,69.73
2019-02-11T05:02:49.855Z,58.90
2019-02-11T05:05:20.104Z,61.13
2019-02-11T05:07:50.506Z,64.67
2019-02-11T05:10:20.709Z,54.63
2019-02-11T05:12:50.933Z,56.87
2019-02-11T05:15:21.274Z,61.40
2019-02-11T05:17:51.507Z,66.27
2019-02-11T05:20:21.920Z,67.33
2019-02-11T05:22:52.204Z,69.70
2019-02-11T05:25:22.503Z,57.93
2019-02-11T05:27:52.829Z,61.50
2019-02-11T05:30:23.164Z,58.90
2019-02-11T05:32:53.417Z,62.57
2019-02-11T05:35:23.656Z,58.97
2019-02-11T05:37:53.967Z,59.90
2019-02-11T05:40:24.196Z,56.87
2019-02-11T05:42:54.415Z,57.17
2019-02-11T05:45:24.743Z,52.47
2019-02-11T05:47:55.088Z,52.70
2019-02-11T05:50:25.412Z,52.60
2019-02-11T05:52:55.953Z,52.90
2019-02-11T05:55:26.234Z,48.90
2019-02-11T05:57:56.398Z,46.80
2019-02-11T06:00:26.782Z,42.77
2019-02-11T06:02:57.053Z,47.13
2019-02-11T06:05:27.777Z,40.77
2019-02-11T06:07:58.305Z,52.00
2019-02-11T06:10:28.576Z,47.97
2019-02-11T06:12:58.815Z,55.17
2019-02-11T06:15:29.133Z,49.00
2019-02-11T06:17:59.467Z,44.33
2019-02-11T06:20:29.687Z,49.87
2019-02-11T06:23:00.033Z,44.63
2019-02-11T06:25:30.270Z,49.43
2019-02-11T06:28:00.690Z,53.30
2019-02-11T06:30:31.120Z,48.40
2019-02-11T06:33:02.886Z,47.07
2019-02-11T06:35:33.197Z,45.63
2019-02-11T06:38:03.564Z,50.30
2019-02-11T06:40:33.932Z,50.83
2019-02-11T06:43:06.047Z,56.33
2019-02-11T06:45:37.211Z,48.27
2019-02-11T06:48:07.862Z,53.60
2019-02-11T06:50:38.146Z,58.27
2019-02-11T06:53:08.738Z,46.77
2019-02-11T06:55:39.019Z,44.53
2019-02-11T06:58:09.257Z,40.50
2019-02-11T07:00:39.725Z,41.40
2019-02-11T07:03:10.189Z,38.57
2019-02-11T07:05:40.450Z,38.17
2019-02-11T07:08:10.812Z,39.97
2019-02-11T07:10:41.070Z,39.57
2019-02-11T07:13:11.123Z,43.77
2019-02-11T07:15:41.345Z,41.03
2019-02-11T07:18:11.632Z,37.60
2019-02-11T07:20:41.894Z,31.00
2019-02-11T07:23:12.253Z,30.47
2019-02-11T07:25:42.487Z,32.97
2019-02-11T07:28:12.750Z,35.67
2019-02-11T07:30:43.158Z,31.70
2019-02-11T07:33:13.306Z,30.83
2019-02-11T07:35:43.585Z,26.80
2019-02-11T07:38:13.883Z,31.83
2019-02-11T07:40:44.182Z,29.33
2019-02-11T07:43:33.439Z,20.10
2019-02-11T07:46:22.708Z,28.07
2019-02-11T07:48:53.415Z,28.77
2019-02-11T07:51:23.855Z,25.60
2019-02-11T07:53:54.240Z,20.57
2019-02-11T07:56:24.718Z,28.20
2019-02-11T07:58:55.003Z,27.43
2019-02-11T08:01:25.244Z,22.93
2019-02-11T08:03:55.508Z,26.33
2019-02-11T08:06:25.799Z,20.27
2019-02-11T08:09:05.365Z,21.27
2019-02-11T08:11:50.045Z,24.43
2019-02-11T08:14:27.960Z,21.60
2019-02-11T08:17:09.039Z,21.07
2019-02-11T08:19:51.991Z,25.03
2019-02-11T08:22:22.211Z,21.33
2019-02-11T08:24:53.883Z,20.87
2019-02-11T08:27:24.376Z,19.83
2019-02-11T08:29:54.708Z,18.87
2019-02-11T08:32:25.023Z,20.03
2019-02-11T08:34:55.263Z,12.77
2019-02-11T08:37:26.255Z,13.70
2019-02-11T08:39:58.027Z,16.17
2019-02-11T08:42:28.144Z,13.07
2019-02-11T08:44:58.357Z,14.47
2019-02-11T08:47:28.694Z,16.37
2019-02-11T08:49:59.056Z,13.60
2019-02-11T08:52:29.489Z,13.27
2019-02-11T08:54:59.846Z,12.17
2019-02-11T08:57:30.122Z,12.30
2019-02-11T09:00:00.449Z,12.00
2019-02-11T09:02:30.888Z,16.70
2019-02-11T09:05:02.263Z,12.00
2019-02-11T09:07:34.333Z,11.43
2019-02-11T09:10:06.365Z,11.03
2019-02-11T09:12:37.102Z,10.13
2019-02-11T09:15:08.579Z,9.63
2019-02-11T09:17:41.096Z,18.48
2019-02-11T09:20:13.105Z,15.20
2019-02-11T09:22:43.406Z,15.43
2019-02-11T09:25:13.892Z,14.73
2019-02-11T09:27:44.111Z,17.03
2019-02-11T09:30:15.416Z,12.77
2019-02-11T09:32:45.782Z,13.27
2019-02-11T09:35:16.422Z,10.03
2019-02-11T09:37:46.744Z,10.50
2019-02-11T09:40:17.638Z,11.10
2019-02-11T09:42:49.720Z,10.87
2019-02-11T09:45:21.388Z,10.67
2019-02-11T09:47:51.671Z,11.07
2019-02-11T09:50:27.515Z,9.73
2019-02-11T09:52:57.819Z,12.17
2019-02-11T09:55:31.467Z,10.63
2019-02-11T09:58:01.762Z,9.30
2019-02-11T10:00:32.275Z,8.40
2019-02-11T10:03:02.586Z,9.63
2019-02-11T10:05:32.795Z,10.43
2019-02-11T10:08:03.038Z,8.33
2019-02-11T10:10:33.554Z,8.57
2019-02-11T10:13:03.791Z,5.47
2019-02-11T10:15:34.072Z,6.10
2019-02-11T10:18:04.373Z,3.50
2019-02-11T10:20:34.679Z,3.20
2019-02-11T10:23:05.302Z,1.80
2019-02-11T10:25:35.683Z,0.70
2019-02-11T10:28:09.025Z,0.50
2019-02-11T10:30:40.035Z,0.50
2019-02-11T10:33:10.458Z,0.60
2019-02-11T10:35:42.490Z,0.57
2019-02-11T10:38:13.008Z,0.30
2019-02-11T10:40:44.152Z,0.30
2019-02-11T10:43:14.432Z,0.50
2019-02-11T10:45:44.795Z,0.50
2019-02-11T10:48:15.318Z,0.30
2019-02-11T10:50:45.605Z,0.30
2019-02-11T10:53:15.995Z,0.20
2019-02-11T10:55:46.207Z,0.60
2019-02-11T10:58:16.446Z,0.33
2019-02-11T11:00:46.760Z,0.30
2019-02-11T11:03:17.017Z,0.23
2019-02-11T11:05:47.461Z,0.60
2019-02-11T11:08:17.911Z,0.43
2019-02-11T11:10:48.279Z,0.87
2019-02-11T11:13:18.506Z,0.40
2019-02-11T11:15:48.911Z,0.30
2019-02-11T11:18:19.260Z,0.30
2019-02-11T11:20:49.611Z,0.70
2019-02-11T11:23:20.235Z,0.20
2019-02-11T11:25:50.608Z,0.20
2019-02-11T11:28:20.839Z,0.50
2019-02-11T11:30:51.168Z,0.40
2019-02-11T11:33:21.435Z,0.27
2019-02-11T11:35:51.704Z,0.33
2019-02-11T11:38:21.990Z,0.20
2019-02-11T11:40:52.360Z,0.30
2019-02-11T11:43:22.618Z,0.50
2019-02-11T11:45:53.002Z,0.30
2019-02-11T11:48:25.021Z,0.50
2019-02-11T11:50:58.769Z,0.40
2019-02-11T11:53:31.167Z,0.70
2019-02-11T11:56:02.706Z,0.20
2019-02-11T11:58:34.729Z,0.30
2019-02-11T12:01:07.456Z,0.23
2019-02-11T12:03:39.305Z,0.90
2019-02-11T12:06:10.360Z,0.30
2019-02-11T12:08:42.140Z,0.23
2019-02-11T12:11:13.466Z,0.20
2019-02-11T12:13:43.954Z,0.30
2019-02-11T12:16:15.431Z,0.63
2019-02-11T12:18:47.034Z,0.30
2019-02-11T12:21:18.453Z,0.63
2019-02-11T12:23:48.692Z,0.50
2019-02-11T12:26:22.760Z,0.20
2019-02-11T12:28:54.554Z,0.50
2019-02-11T12:31:26.278Z,0.23
2019-02-11T12:33:58.550Z,0.33
2019-02-11T12:36:50.845Z,0.40
2019-02-11T12:39:21.343Z,0.33
2019-02-11T12:41:52.673Z,0.40
2019-02-11T12:44:24.013Z,0.30
2019-02-11T12:46:54.591Z,0.67
2019-02-11T12:49:26.893Z,0.20
2019-02-11T12:51:58.894Z,0.30
2019-02-11T12:54:29.124Z,0.20
2019-02-11T12:56:59.438Z,0.30
2019-02-11T12:59:29.787Z,0.40
2019-02-11T13:02:00.081Z,0.70
2019-02-11T13:04:30.313Z,0.20
2019-02-11T13:07:00.591Z,0.20
2019-02-11T13:09:30.835Z,0.63
2019-02-11T13:12:01.261Z,0.20
2019-02-11T13:14:32.787Z,0.40
2019-02-11T13:17:14.886Z,0.50
2019-02-11T13:19:38.189Z,0.40
2019-02-11T13:22:08.469Z,0.20
2019-02-11T13:24:40.225Z,0.60
2019-02-11T13:27:10.761Z,0.30
2019-02-11T13:29:41.059Z,0.27
2019-02-11T13:32:11.465Z,0.27
2019-02-11T13:34:41.807Z,0.30
2019-02-11T13:37:12.083Z,0.20
2019-02-11T13:39:42.288Z,0.20
2019-02-11T13:42:12.721Z,0.50
2019-02-11T13:44:43.070Z,0.30
2019-02-11T13:47:13.366Z,0.40
2019-02-11T13:49:46.577Z,0.73
2019-02-11T13:52:16.777Z,0.20
2019-02-11T13:54:50.183Z,0.40
2019-02-11T13:57:21.033Z,0.30
2019-02-11T13:59:51.819Z,0.20
2019-02-11T14:02:22.242Z,0.20
2019-02-11T14:04:52.623Z,0.40
2019-02-11T14:07:23.020Z,0.40
2019-02-11T14:09:53.319Z,0.50
2019-02-11T14:12:23.570Z,0.30
2019-02-11T14:14:53.914Z,0.80
2019-02-11T14:17:24.308Z,0.70
2019-02-11T14:19:54.676Z,0.80
2019-02-11T14:22:25.073Z,1.00
2019-02-11T14:24:55.460Z,2.10
2019-02-11T14:27:25.838Z,0.87
2019-02-11T14:29:56.030Z,0.70
2019-02-11T14:32:26.352Z,0.20
2019-02-11T14:34:56.590Z,0.33
2019-02-11T14:37:26.982Z,0.23
2019-02-11T14:39:57.406Z,0.30
2019-02-11T14:42:27.853Z,0.30
2019-02-11T14:44:58.076Z,0.40
2019-02-11T14:47:28.398Z,1.03
2019-02-11T14:49:58.738Z,1.13
2019-02-11T14:52:29.035Z,0.40
2019-02-11T14:55:00.399Z,0.73
2019-02-11T14:57:30.622Z,0.50
2019-02-11T15:00:00.919Z,0.30
2019-02-11T15:02:31.199Z,0.30
2019-02-11T15:05:01.513Z,1.80
2019-02-11T15:07:31.834Z,0.50
2019-02-11T15:10:02.175Z,1.07
2019-02-11T15:12:34.282Z,0.90
2019-02-11T15:15:04.710Z,0.50
2019-02-11T15:17:36.386Z,0.30
2019-02-11T15:20:08.063Z,0.50
2019-02-11T15:22:39.150Z,2.97
2019-02-11T15:25:12.483Z,0.30
2019-02-11T15:27:42.790Z,0.30
2019-02-11T15:30:15.694Z,0.50
2019-02-11T15:32:46.228Z,0.67
2019-02-11T15:35:16.751Z,0.50
2019-02-11T15:37:47.225Z,0.50
2019-02-11T15:40:19.521Z,1.10
2019-02-11T15:42:50.131Z,0.43
2019-02-11T15:45:20.555Z,0.60
2019-02-11T15:47:50.780Z,0.90
2019-02-11T15:50:20.947Z,0.40
2019-02-11T15:52:52.497Z,0.57
2019-02-11T15:55:23.350Z,0.40
2019-02-11T15:57:53.654Z,0.50
2019-02-11T16:00:24.023Z,0.30
2019-02-11T16:02:54.319Z,1.03
2019-02-11T16:05:24.715Z,0.53
2019-02-11T16:07:55.281Z,0.40
2019-02-11T16:10:26.759Z,0.40
2019-02-11T16:12:59.267Z,0.50
2019-02-11T16:15:30.237Z,1.27
2019-02-11T16:18:00.467Z,0.30
2019-02-11T16:20:30.878Z,0.30
2019-02-11T16:23:01.191Z,0.40
2019-02-11T16:25:31.516Z,0.40
2019-02-11T16:28:02.281Z,0.30
2019-02-11T16:30:32.775Z,0.30
2019-02-11T16:33:03.059Z,0.50
2019-02-11T16:35:35.920Z,0.20
2019-02-11T16:38:06.148Z,0.33
2019-02-11T16:40:38.836Z,0.30
2019-02-11T16:43:09.255Z,0.60
2019-02-11T16:45:39.511Z,0.30
2019-02-11T16:48:09.709Z,1.00
2019-02-11T16:50:40.013Z,0.20
2019-02-11T16:53:10.370Z,0.30
2019-02-11T16:55:40.720Z,0.30
2019-02-11T16:58:10.978Z,0.40
2019-02-11T17:00:41.469Z,0.40
2019-02-11T17:03:11.895Z,0.30
2019-02-11T17:05:42.355Z,0.27
2019-02-11T17:08:12.750Z,0.60
2019-02-11T17:10:43.814Z,0.20
2019-02-11T17:13:14.286Z,0.60
2019-02-11T17:15:44.619Z,0.37
2019-02-11T17:18:14.951Z,0.30
2019-02-11T17:20:45.592Z,0.20
2019-02-11T17:23:16.389Z,0.23
2019-02-11T17:25:47.490Z,0.37
2019-02-11T17:28:18.972Z,0.40
2019-02-11T17:30:50.829Z,0.33
2019-02-11T17:33:21.313Z,0.30
2019-02-11T17:35:51.913Z,0.50
2019-02-11T17:38:22.515Z,0.20
2019-02-11T17:40:53.864Z,0.10
2019-02-11T17:43:24.851Z,0.20
2019-02-11T17:45:57.025Z,0.20
2019-02-11T17:48:28.535Z,0.30
2019-02-11T17:50:59.289Z,0.20
2019-02-11T17:53:29.951Z,0.30
2019-02-11T17:56:01.033Z,0.30
2019-02-11T17:58:32.480Z,0.40
2019-02-11T18:01:03.434Z,0.40
2019-02-11T18:03:34.443Z,0.33
2019-02-11T18:06:05.402Z,0.47
2019-02-11T18:08:36.844Z,0.33
2019-02-11T18:11:08.561Z,0.30
2019-02-11T18:13:40.010Z,0.30
2019-02-11T18:16:11.685Z,0.30
2019-02-11T18:18:42.718Z,0.40
2019-02-11T18:21:14.301Z,0.30
2019-02-11T18:23:45.437Z,0.30
2019-02-11T18:26:17.027Z,0.50
2019-02-11T18:28:48.460Z,0.30
2019-02-11T18:31:19.734Z,0.43
2019-02-11T18:33:51.193Z,0.43
2019-02-11T18:36:22.731Z,0.50
2019-02-11T18:38:54.088Z,0.87
2019-02-11T18:41:25.874Z,0.40
2019-02-11T18:43:57.701Z,0.40
2019-02-11T18:46:28.904Z,0.33
2019-02-11T18:49:00.234Z,0.17
2019-02-11T18:51:31.606Z,0.60
2019-02-11T18:54:03.055Z,0.40
2019-02-11T18:56:35.010Z,0.60
2019-02-11T18:59:06.728Z,0.40
2019-02-11T19:01:38.019Z,0.33
2019-02-11T19:04:08.775Z,0.40
2019-02-11T19:06:39.827Z,0.20
2019-02-11T19:09:16.112Z,0.70
2019-02-11T19:11:47.755Z,0.87
2019-02-11T19:14:19.632Z,0.50
2019-02-11T19:16:51.266Z,0.70
2019-02-11T19:19:25.888Z,0.50
2019-02-11T19:21:57.452Z,0.60
2019-02-11T19:24:33.432Z,0.50
2019-02-11T19:27:04.741Z,0.60
2019-02-11T19:29:36.333Z,0.40
2019-02-11T19:32:07.804Z,0.80
2019-02-11T19:34:39.111Z,0.73
2019-02-11T19:37:10.311Z,0.60
2019-02-11T19:39:41.886Z,0.60
2019-02-11T19:42:13.279Z,0.63
2019-02-11T19:44:44.554Z,0.50
2019-02-11T19:47:16.014Z,0.40
2019-02-11T19:49:51.724Z,0.63
2019-02-11T19:52:20.711Z,0.40
2019-02-11T19:54:52.735Z,0.63
2019-02-11T19:57:24.536Z,0.60
2019-02-11T19:59:55.903Z,0.80
2019-02-11T20:02:27.583Z,0.50
2019-02-11T20:04:59.323Z,0.33
2019-02-11T20:07:30.530Z,0.60
2019-02-11T20:10:02.167Z,0.50
2019-02-11T20:12:33.553Z,1.10
2019-02-11T20:15:06.022Z,1.40
2019-02-11T20:17:37.671Z,1.90
2019-02-11T20:20:10.802Z,1.03
2019-02-11T20:22:42.322Z,1.00
2019-02-11T20:25:13.895Z,1.10
2019-02-11T20:27:45.220Z,0.80
2019-02-11T20:30:18.124Z,0.80
2019-02-11T20:32:49.541Z,1.80
2019-02-11T20:35:21.478Z,1.50
2019-02-11T20:37:53.120Z,2.17
2019-02-11T20:40:25.219Z,2.23
2019-02-11T20:42:56.772Z,1.40
2019-02-11T20:45:28.576Z,0.70
2019-02-11T20:47:59.819Z,0.70
2019-02-11T20:50:31.219Z,0.70
2019-02-11T20:53:02.628Z,0.53
2019-02-11T20:55:33.976Z,0.67
2019-02-11T20:58:05.032Z,0.43
2019-02-11T21:00:36.046Z,0.70
2019-02-11T21:03:08.654Z,0.77
2019-02-11T21:05:39.994Z,1.13
2019-02-11T21:08:10.875Z,1.43
2019-02-11T21:10:41.779Z,0.50
2019-02-11T21:13:12.654Z,0.70
2019-02-11T21:15:42.850Z,0.73
2019-02-11T21:18:13.246Z,1.07
2019-02-11T21:20:43.851Z,0.73
2019-02-11T21:23:14.303Z,0.80
2019-02-11T21:25:44.607Z,0.90
2019-02-11T21:28:15.007Z,0.73
2019-02-11T21:30:45.174Z,1.73
2019-02-11T21:33:15.458Z,1.00
2019-02-11T21:35:45.858Z,0.60
2019-02-11T21:38:16.100Z,0.97
2019-02-11T21:40:46.352Z,0.67
2019-02-11T21:43:16.844Z,0.70
2019-02-11T21:45:47.071Z,0.67
2019-02-11T21:48:17.300Z,0.93
2019-02-11T21:50:48.801Z,0.83
2019-02-11T21:53:19.210Z,0.87
2019-02-11T21:55:49.418Z,1.20
2019-02-11T21:58:19.772Z,1.10
2019-02-11T22:00:50.112Z,0.70
2019-02-11T22:03:20.400Z,0.77
2019-02-11T22:05:50.731Z,0.87
2019-02-11T22:08:20.992Z,0.70
2019-02-11T22:10:51.246Z,0.70
2019-02-11T22:13:21.651Z,0.90
2019-02-11T22:15:52.004Z,0.50
2019-02-11T22:18:22.329Z,0.50
2019-02-11T22:20:52.686Z,0.30
2019-02-11T22:23:22.989Z,0.50
2019-02-11T22:25:53.396Z,0.40
2019-02-11T22:28:23.648Z,0.50
2019-02-11T22:30:53.920Z,0.67
2019-02-11T22:33:24.123Z,0.57
2019-02-11T22:35:54.454Z,0.60
2019-02-11T22:38:24.912Z,0.70
2019-02-11T22:40:55.356Z,0.67
2019-02-11T22:43:25.707Z,0.50
2019-02-11T22:45:55.984Z,0.53
2019-02-11T22:48:26.326Z,0.40
2019-02-11T22:50:56.802Z,0.77
2019-02-11T22:53:26.939Z,0.70
2019-02-11T22:55:57.259Z,0.50
2019-02-11T22:58:27.567Z,0.40
2019-02-11T23:01:04.177Z,0.60
2019-02-11T23:03:35.072Z,0.30
2019-02-11T23:06:05.745Z,0.30
2019-02-11T23:08:36.068Z,0.60
2019-02-11T23:11:06.451Z,0.43
2019-02-11T23:13:36.673Z,0.47
2019-02-11T23:16:06.931Z,0.33
2019-02-11T23:18:37.423Z,0.50
2019-02-11T23:21:07.752Z,0.40
2019-02-11T23:23:37.967Z,0.30
2019-02-11T23:26:09.231Z,0.33
2019-02-11T23:28:39.458Z,0.40
2019-02-11T23:31:10.005Z,0.50
2019-02-11T23:33:41.639Z,0.93
2019-02-11T23:36:13.245Z,0.27
2019-02-11T23:38:45.901Z,0.70
2019-02-11T23:41:16.431Z,0.20
2019-02-11T23:43:48.116Z,0.33
2019-02-11T23:46:18.655Z,0.20
2019-02-11T23:48:50.812Z,0.17
2019-02-11T23:51:21.105Z,0.20
2019-02-11T23:53:51.615Z,0.40
2019-02-11T23:56:21.966Z,0.33
2019-02-11T23:58:52.221Z,0.23
